PABE/BET METAR and TAF weather

Enter ICAO airport designator
Station Type Date Time Source
PABE METAR 2021/01/27 13:53 UTC NOAA

PABE 271353Z AUTO 05008KT 10SM OVC075 M12/M14 A3001 RMK AO2 SLP166 T11171139 TSNO


Station Type Date Time Source
PABE Decoded METAR 2021/01/27 13:53 UTC NOAA

BETHEL AIRPORT, AK, United States (PABE) 60-47N 161-50W 46M
Jan 27, 2021 - 08:53 AM EST / 2021.01.27 1353 UTC
Wind: from the NE (050 degrees) at 9 MPH (8 KT):0
Visibility: 10 mile(s):0
Sky conditions: overcast
Temperature: 10.9 F (-11.7 C)
Windchill: -2 F (-19 C):1
Dew Point: 7.0 F (-13.9 C)
Relative Humidity: 83%
Pressure (altimeter): 30.01 in. Hg (1016 hPa)
ob: PABE 271353Z AUTO 05008KT 10SM OVC075 M12/M14 A3001 RMK AO2 SLP166 T11171139 TSNO
cycle: 14

Station Type Date Time Source
PABE TAF 2021/01/27 12:27 UTC NOAA

TAF PABE 271124Z 2712/2812 04010KT P6SM OVC100
FM272300 05010KT 2SM -SN BR OVC025

Example: see airport list